Time;durP1;ratioP1;P1;durP2;ratioP2;P2;SDS_P1;SDS_P2;PMS_P1;PMS_P2;Temp;Humidity;BMP_temperature;BMP_pressure;BME280_temperature;BME280_humidity;BME280_pressure;Samples;Min_cycle;Max_cycle;Signal;HPM_P1;HPM_P2
2021/05/23 00:01:15;;;;;;;7.65;2.30;;;8.50;91.70;;;;;;5070977;28;20389;-68
2021/05/23 00:03:41;;;;;;;9.85;2.92;;;8.50;91.80;;;;;;5069986;28;20442;-68
2021/05/23 00:06:07;;;;;;;8.65;2.53;;;8.50;92.30;;;;;;5070396;28;20087;-68
2021/05/23 00:08:33;;;;;;;7.63;2.35;;;8.50;91.80;;;;;;5071080;28;20659;-68
2021/05/23 00:11:06;;;;;;;6.93;2.58;;;8.60;92.10;;;;;;5069897;28;20098;-68
2021/05/23 00:13:39;;;;;;;10.90;2.45;;;8.60;92.30;;;;;;5070363;28;20048;-68
2021/05/23 00:16:07;;;;;;;9.93;2.42;;;8.50;92.40;;;;;;5068948;28;20456;-68
2021/05/23 00:18:38;;;;;;;8.35;2.90;;;8.60;92.40;;;;;;5061574;28;20067;-68
2021/05/23 00:21:05;;;;;;;6.05;2.15;;;8.60;92.80;;;;;;5071716;28;20066;-68
2021/05/23 00:23:31;;;;;;;10.07;2.58;;;8.60;92.20;;;;;;5070781;28;20118;-68
2021/05/23 00:25:57;;;;;;;9.15;2.47;;;8.60;92.40;;;;;;5062298;28;20036;-68
2021/05/23 00:28:23;;;;;;;9.05;2.40;;;8.60;92.50;;;;;;5069632;28;20096;-68
2021/05/23 00:30:49;;;;;;;14.93;2.75;;;8.60;92.30;;;;;;5071742;28;20456;-68
2021/05/23 00:33:15;;;;;;;11.07;2.63;;;8.50;92.40;;;;;;5070257;28;20041;-68
2021/05/23 00:35:41;;;;;;;6.07;2.55;;;8.50;92.40;;;;;;5068693;28;20040;-68
2021/05/23 00:38:08;;;;;;;8.13;2.25;;;8.40;92.00;;;;;;5072172;28;20094;-68
2021/05/23 00:40:36;;;;;;;6.05;2.25;;;8.40;91.90;;;;;;5070454;28;20040;-68
2021/05/23 00:43:10;;;;;;;7.90;2.03;;;8.30;92.20;;;;;;5070386;28;20071;-68
2021/05/23 00:45:36;;;;;;;6.00;2.20;;;8.30;92.40;;;;;;5068464;28;20860;-68
2021/05/23 00:48:03;;;;;;;9.48;2.50;;;8.30;92.10;;;;;;5069135;28;20032;-68
2021/05/23 00:50:28;;;;;;;5.97;1.90;;;8.20;92.30;;;;;;5071465;28;20044;-68
2021/05/23 00:52:55;;;;;;;7.32;1.90;;;8.20;92.40;;;;;;5069955;28;20459;-67
2021/05/23 00:55:22;;;;;;;8.43;2.30;;;8.10;92.50;;;;;;5059956;28;20071;-67
2021/05/23 00:57:49;;;;;;;8.23;2.10;;;8.10;92.30;;;;;;5068237;28;20040;-67
2021/05/23 01:00:40;;;;;;;8.52;2.17;;;8.00;92.50;;;;;;5070100;28;20114;-65
2021/05/23 01:03:25;;;;;;;5.22;2.20;;;7.90;92.90;;;;;;5070597;28;20090;-65
2021/05/23 01:05:59;;;;;;;8.02;2.22;;;7.80;92.70;;;;;;5070757;28;20459;-65
2021/05/23 01:08:26;;;;;;;11.07;2.50;;;7.80;92.80;;;;;;5066890;28;20048;-65
2021/05/23 01:11:02;;;;;;;6.90;2.20;;;7.80;92.70;;;;;;5069099;28;20036;-65
2021/05/23 01:13:34;;;;;;;5.80;2.22;;;7.70;92.90;;;;;;5069958;28;20032;-65
2021/05/23 01:16:06;;;;;;;8.10;2.65;;;7.60;92.90;;;;;;5070069;28;20517;-65
2021/05/23 01:18:40;;;;;;;7.95;2.35;;;7.50;92.90;;;;;;5069317;28;20024;-65
2021/05/23 01:21:08;;;;;;;7.68;2.15;;;7.50;93.20;;;;;;5069144;28;20170;-65
2021/05/23 01:23:43;;;;;;;6.57;2.50;;;7.40;93.10;;;;;;5066380;28;20055;-65
2021/05/23 01:26:13;;;;;;;8.38;2.00;;;7.40;93.20;;;;;;5066339;28;20443;-65
2021/05/23 01:28:49;;;;;;;10.57;2.50;;;7.30;93.20;;;;;;5066060;28;20047;-65
2021/05/23 01:31:18;;;;;;;5.55;2.20;;;7.30;93.60;;;;;;5069116;28;20097;-65
2021/05/23 01:33:49;;;;;;;9.25;2.33;;;7.20;93.50;;;;;;5069256;28;20044;-65
2021/05/23 01:36:15;;;;;;;8.82;2.28;;;7.20;93.20;;;;;;5070920;28;20052;-65
2021/05/23 01:38:40;;;;;;;8.43;2.25;;;7.10;93.30;;;;;;5070221;28;20419;-65
2021/05/23 01:41:09;;;;;;;5.20;2.22;;;7.10;93.50;;;;;;5068221;28;20424;-65
2021/05/23 01:43:36;;;;;;;8.30;2.20;;;7.10;93.40;;;;;;5069989;28;20041;-65
2021/05/23 01:46:03;;;;;;;9.75;2.30;;;7.10;93.60;;;;;;5069111;28;20070;-65
2021/05/23 01:48:30;;;;;;;9.40;2.25;;;7.00;93.80;;;;;;5067446;28;20043;-65
2021/05/23 01:50:56;;;;;;;6.40;2.42;;;7.00;93.70;;;;;;5070284;28;20039;-65
2021/05/23 01:53:22;;;;;;;5.35;2.63;;;6.90;93.80;;;;;;5067214;28;20041;-65
2021/05/23 01:55:48;;;;;;;8.35;2.30;;;6.90;93.70;;;;;;5069218;28;20047;-65
2021/05/23 01:58:13;;;;;;;6.47;2.25;;;6.90;93.60;;;;;;5067402;28;20036;-65
2021/05/23 02:00:43;;;;;;;8.35;2.30;;;6.90;93.70;;;;;;5068291;28;20082;-65
2021/05/23 02:03:11;;;;;;;6.68;2.30;;;6.80;93.70;;;;;;5066752;28;20047;-65
2021/05/23 02:05:39;;;;;;;9.20;2.88;;;6.80;93.90;;;;;;5068848;28;20051;-65
2021/05/23 02:08:07;;;;;;;9.45;3.38;;;6.70;94.20;;;;;;5069604;28;20040;-65
2021/05/23 02:10:34;;;;;;;6.97;2.35;;;6.70;93.90;;;;;;5069674;28;20449;-65
2021/05/23 02:13:04;;;;;;;9.73;2.50;;;6.70;94.10;;;;;;5066246;28;20039;-65
2021/05/23 02:15:30;;;;;;;7.95;2.50;;;6.70;94.00;;;;;;5067906;28;20033;-65
2021/05/23 02:17:56;;;;;;;9.43;2.90;;;6.60;94.00;;;;;;5059512;28;20036;-65
2021/05/23 02:20:29;;;;;;;8.15;2.63;;;6.60;94.10;;;;;;5067894;28;20107;-65
2021/05/23 02:22:58;;;;;;;6.25;2.15;;;6.60;94.30;;;;;;5068092;28;20068;-65
2021/05/23 02:25:26;;;;;;;9.23;2.63;;;6.60;94.30;;;;;;5069203;28;20075;-65
2021/05/23 02:28:05;;;;;;;9.65;2.42;;;6.60;94.30;;;;;;5069174;28;20079;-65
2021/05/23 02:30:34;;;;;;;8.23;3.35;;;6.50;94.40;;;;;;5068858;28;20037;-65
2021/05/23 02:33:00;;;;;;;8.93;2.72;;;6.50;94.70;;;;;;5066938;28;20075;-65
2021/05/23 02:35:27;;;;;;;10.60;2.95;;;6.50;94.30;;;;;;5065283;28;20056;-65
2021/05/23 02:37:54;;;;;;;6.00;2.67;;;6.60;94.40;;;;;;5069611;28;20075;-65
2021/05/23 02:40:22;;;;;;;9.18;2.30;;;6.60;94.60;;;;;;5067636;28;20101;-65
2021/05/23 02:42:48;;;;;;;10.30;2.40;;;6.60;94.50;;;;;;5069062;28;20032;-65
2021/05/23 02:45:16;;;;;;;12.52;2.75;;;6.60;94.60;;;;;;5066851;28;20033;-65
2021/05/23 02:47:43;;;;;;;9.32;2.63;;;6.60;94.30;;;;;;5071547;28;20039;-65
2021/05/23 02:50:14;;;;;;;13.15;3.15;;;6.60;94.60;;;;;;5068535;28;20045;-65
2021/05/23 02:52:40;;;;;;;7.32;2.40;;;6.60;94.40;;;;;;5066437;28;20555;-65
2021/05/23 02:55:07;;;;;;;9.98;2.90;;;6.60;94.70;;;;;;5063701;28;20056;-65
2021/05/23 02:57:37;;;;;;;9.60;2.58;;;6.70;94.40;;;;;;5067124;28;20123;-66
2021/05/23 03:00:06;;;;;;;6.53;2.83;;;6.60;94.40;;;;;;5063164;28;20037;-66
2021/05/23 03:02:35;;;;;;;12.35;3.10;;;6.60;94.50;;;;;;5065744;28;20029;-66
2021/05/23 03:05:10;;;;;;;9.82;2.90;;;6.60;94.70;;;;;;5068360;28;20521;-66
2021/05/23 03:07:39;;;;;;;12.18;2.88;;;6.60;95.00;;;;;;5067293;28;20272;-66
2021/05/23 03:10:07;;;;;;;7.85;2.35;;;6.60;94.70;;;;;;5067095;28;20447;-66
2021/05/23 03:12:34;;;;;;;7.15;2.40;;;6.60;95.00;;;;;;5064882;28;20119;-66
2021/05/23 03:15:00;;;;;;;8.90;2.33;;;6.60;94.40;;;;;;5066635;28;20100;-66
2021/05/23 03:17:25;;;;;;;7.22;2.40;;;6.60;94.40;;;;;;5067523;28;20036;-66
2021/05/23 03:19:51;;;;;;;5.35;2.50;;;6.50;94.30;;;;;;5066619;28;20033;-66
2021/05/23 03:22:17;;;;;;;8.23;2.47;;;6.40;94.10;;;;;;5068139;28;20041;-66
2021/05/23 03:24:42;;;;;;;7.63;2.58;;;6.40;94.20;;;;;;5067039;28;20121;-66
2021/05/23 03:27:09;;;;;;;7.55;2.95;;;6.30;94.50;;;;;;5068281;28;20044;-66
2021/05/23 03:29:34;;;;;;;5.82;2.22;;;6.20;94.60;;;;;;5066510;28;20086;-66
2021/05/23 03:32:00;;;;;;;10.82;3.38;;;6.10;94.70;;;;;;5069188;28;20036;-65
2021/05/23 03:34:26;;;;;;;11.80;3.55;;;6.10;95.00;;;;;;5067952;28;20087;-65
2021/05/23 03:36:51;;;;;;;6.32;2.90;;;6.10;95.10;;;;;;5068787;28;20047;-66
2021/05/23 03:39:17;;;;;;;6.95;2.60;;;6.00;94.90;;;;;;5067288;28;20041;-66
2021/05/23 03:41:43;;;;;;;10.32;2.65;;;6.00;94.90;;;;;;5070017;28;20037;-66
2021/05/23 03:44:08;;;;;;;12.35;3.28;;;5.90;95.20;;;;;;5067747;28;20529;-65
2021/05/23 03:46:34;;;;;;;8.75;3.17;;;5.90;94.90;;;;;;5068314;28;20417;-66
2021/05/23 03:48:59;;;;;;;10.80;3.30;;;5.90;95.20;;;;;;5066200;28;20041;-66
2021/05/23 03:51:27;;;;;;;9.25;2.78;;;5.90;95.40;;;;;;5067351;28;20051;-66
2021/05/23 03:53:53;;;;;;;9.35;3.10;;;5.90;95.30;;;;;;5067786;28;20120;-66
2021/05/23 03:56:19;;;;;;;12.32;3.33;;;5.90;95.30;;;;;;5063469;28;20119;-66
2021/05/23 03:58:44;;;;;;;7.50;3.50;;;5.90;95.40;;;;;;5064345;28;20059;-66
2021/05/23 04:01:10;;;;;;;6.72;2.67;;;6.00;95.80;;;;;;5066716;28;20036;-66
2021/05/23 04:03:35;;;;;;;10.73;3.50;;;6.00;95.60;;;;;;5067747;28;20029;-66
2021/05/23 04:06:01;;;;;;;5.80;2.95;;;6.10;95.70;;;;;;5066751;28;20033;-66
2021/05/23 04:08:27;;;;;;;7.78;3.47;;;6.20;95.60;;;;;;5069279;28;20106;-66
2021/05/23 04:10:58;;;;;;;9.60;3.78;;;6.30;95.90;;;;;;5067841;28;20513;-66
2021/05/23 04:13:25;;;;;;;9.13;3.28;;;6.40;95.80;;;;;;5064826;28;20654;-66
2021/05/23 04:15:51;;;;;;;9.40;3.67;;;6.50;95.40;;;;;;5065165;28;20052;-65
2021/05/23 04:18:16;;;;;;;6.75;3.20;;;6.60;95.30;;;;;;5069028;28;20109;-66
2021/05/23 04:20:42;;;;;;;7.80;2.90;;;6.70;95.20;;;;;;5067838;28;20044;-66
2021/05/23 04:23:08;;;;;;;6.00;2.90;;;6.70;95.30;;;;;;5067457;28;20086;-65
2021/05/23 04:25:34;;;;;;;5.78;3.33;;;6.80;95.30;;;;;;5064272;28;20501;-66
2021/05/23 04:28:00;;;;;;;8.93;3.55;;;6.90;95.40;;;;;;5069926;28;20536;-65
2021/05/23 04:30:27;;;;;;;8.63;3.58;;;7.00;95.40;;;;;;5069871;28;20036;-66
2021/05/23 04:32:54;;;;;;;8.77;3.05;;;7.00;95.00;;;;;;5070759;28;20048;-66
2021/05/23 04:35:19;;;;;;;6.45;3.00;;;7.10;95.10;;;;;;5071996;28;20494;-63
2021/05/23 04:37:45;;;;;;;7.65;3.30;;;7.10;95.00;;;;;;5069562;28;20047;-64
2021/05/23 04:40:13;;;;;;;15.50;4.10;;;7.20;94.90;;;;;;5063211;28;20040;-64
2021/05/23 04:42:39;;;;;;;6.82;3.08;;;7.20;94.90;;;;;;5066081;28;20071;-63
2021/05/23 04:45:06;;;;;;;8.68;3.25;;;7.30;94.80;;;;;;5068670;28;20064;-64
2021/05/23 04:47:33;;;;;;;6.85;3.72;;;7.40;94.70;;;;;;5070058;28;20052;-64
2021/05/23 04:49:58;;;;;;;8.70;2.90;;;7.50;94.60;;;;;;5064564;28;20039;-64
2021/05/23 04:52:24;;;;;;;6.53;2.88;;;7.70;94.40;;;;;;5069979;28;20044;-64
2021/05/23 04:54:50;;;;;;;7.68;3.45;;;7.90;94.40;;;;;;5066644;28;20045;-63
2021/05/23 04:57:16;;;;;;;8.48;3.33;;;8.10;94.10;;;;;;5069550;28;20039;-64
2021/05/23 04:59:41;;;;;;;9.25;3.22;;;8.20;94.00;;;;;;5069839;28;20466;-64
2021/05/23 05:02:07;;;;;;;7.03;3.17;;;8.40;93.60;;;;;;5070385;28;20036;-63
2021/05/23 05:04:33;;;;;;;7.85;2.65;;;8.60;93.20;;;;;;5071362;28;20078;-64
2021/05/23 05:06:59;;;;;;;11.00;3.60;;;8.70;92.70;;;;;;5069707;28;20658;-64
2021/05/23 05:09:25;;;;;;;12.43;3.67;;;8.90;92.90;;;;;;5074237;22;20053;-65
2021/05/23 05:11:51;;;;;;;4.50;2.35;;;8.90;92.80;;;;;;5044005;28;20071;-65
2021/05/23 05:14:16;;;;;;;8.05;2.85;;;9.10;92.30;;;;;;5042915;28;20040;-65
2021/05/23 05:16:42;;;;;;;7.90;3.00;;;9.10;92.40;;;;;;5049199;28;20445;-65
2021/05/23 05:19:08;;;;;;;7.70;3.15;;;9.30;92.60;;;;;;5051889;28;20032;-65
2021/05/23 05:21:34;;;;;;;7.63;2.72;;;9.40;92.50;;;;;;5049233;28;20028;-65
2021/05/23 05:24:00;;;;;;;7.85;2.70;;;9.50;92.40;;;;;;5051476;28;20033;-65
2021/05/23 05:26:26;;;;;;;7.95;3.15;;;9.70;92.00;;;;;;5049935;28;20447;-65
2021/05/23 05:28:52;;;;;;;8.73;2.88;;;9.80;91.80;;;;;;5050515;28;20106;-65
2021/05/23 05:31:18;;;;;;;19.70;3.33;;;9.90;91.70;;;;;;5052496;28;20459;-65
2021/05/23 05:33:44;;;;;;;7.18;2.40;;;10.00;91.10;;;;;;5051669;28;20036;-65
2021/05/23 05:36:09;;;;;;;8.80;2.53;;;10.10;90.80;;;;;;5052054;28;20120;-65
2021/05/23 05:38:35;;;;;;;6.05;2.50;;;10.10;90.90;;;;;;5051419;28;20037;-65
2021/05/23 05:41:02;;;;;;;6.68;2.30;;;10.20;90.90;;;;;;5049826;28;20116;-65
2021/05/23 05:43:28;;;;;;;9.35;3.08;;;10.40;90.60;;;;;;5050702;28;20065;-65
2021/05/23 05:45:53;;;;;;;7.10;2.45;;;10.50;90.60;;;;;;5050744;28;20075;-65
2021/05/23 05:48:19;;;;;;;7.93;2.38;;;10.70;90.00;;;;;;5051533;28;20044;-65
2021/05/23 05:50:45;;;;;;;6.72;2.50;;;10.80;89.00;;;;;;5051322;28;20402;-65
2021/05/23 05:53:10;;;;;;;6.07;2.53;;;11.00;88.90;;;;;;5051003;28;20039;-66
2021/05/23 05:55:36;;;;;;;11.70;2.15;;;11.10;88.20;;;;;;5041938;28;20041;-65
2021/05/23 05:58:02;;;;;;;7.43;2.30;;;11.10;87.70;;;;;;5050677;28;20064;-65
2021/05/23 06:00:28;;;;;;;5.75;2.50;;;11.10;88.00;;;;;;5061689;28;20037;-65
2021/05/23 06:02:53;;;;;;;5.47;1.90;;;11.00;88.20;;;;;;5051516;28;20115;-65
2021/05/23 06:05:19;;;;;;;5.03;2.13;;;11.00;88.30;;;;;;5050533;28;20098;-65
2021/05/23 06:07:45;;;;;;;5.72;2.20;;;11.20;86.60;;;;;;5046894;28;20730;-65
2021/05/23 06:10:13;;;;;;;7.55;2.35;;;12.10;86.50;;;;;;5051339;28;20049;-66
2021/05/23 06:12:39;;;;;;;6.43;2.20;;;13.70;81.90;;;;;;5050695;28;20043;-66
2021/05/23 06:15:06;;;;;;;6.03;1.85;;;14.80;78.00;;;;;;5049181;28;20036;-66
2021/05/23 06:17:32;;;;;;;4.13;1.70;;;15.40;73.10;;;;;;5045854;28;20048;-64
2021/05/23 06:19:57;;;;;;;11.10;2.25;;;15.20;73.10;;;;;;5049828;28;20041;-64
2021/05/23 06:22:23;;;;;;;8.95;2.45;;;14.90;74.30;;;;;;5038964;28;20454;-63
2021/05/23 06:24:49;;;;;;;8.90;2.17;;;14.30;73.70;;;;;;5050533;28;20123;-64
2021/05/23 06:27:15;;;;;;;8.88;2.08;;;14.00;75.10;;;;;;5044801;28;20103;-63
2021/05/23 06:29:43;;;;;;;6.07;2.08;;;13.50;75.20;;;;;;5048582;28;20536;-65
2021/05/23 06:32:08;;;;;;;6.72;2.25;;;13.30;77.00;;;;;;5048059;28;20107;-65
2021/05/23 06:34:34;;;;;;;5.03;1.77;;;13.00;78.00;;;;;;5049756;28;20180;-65
2021/05/23 06:37:00;;;;;;;4.38;1.90;;;13.00;79.40;;;;;;5048611;28;20044;-65
2021/05/23 06:39:26;;;;;;;5.20;1.67;;;13.00;78.20;;;;;;5047055;28;20107;-64
2021/05/23 06:41:51;;;;;;;6.50;2.38;;;12.90;77.80;;;;;;5047635;28;20187;-66
2021/05/23 06:44:18;;;;;;;9.02;2.17;;;12.80;77.70;;;;;;5049151;28;20757;-65
2021/05/23 06:46:44;;;;;;;7.70;2.20;;;12.70;77.50;;;;;;5049698;28;20060;-65
2021/05/23 06:49:10;;;;;;;5.93;2.13;;;12.60;79.20;;;;;;5038622;28;20128;-65
2021/05/23 06:51:35;;;;;;;4.55;2.10;;;12.50;79.50;;;;;;5046928;28;20501;-66
2021/05/23 06:54:01;;;;;;;8.63;2.38;;;12.50;79.00;;;;;;5049445;28;20043;-65
2021/05/23 06:56:27;;;;;;;9.50;2.58;;;12.40;81.20;;;;;;5049836;28;20486;-65
2021/05/23 06:58:53;;;;;;;7.25;2.92;;;12.30;81.00;;;;;;5049304;28;20506;-64
2021/05/23 07:01:18;;;;;;;9.07;2.60;;;12.30;81.70;;;;;;5048996;28;20039;-66
2021/05/23 07:03:44;;;;;;;5.15;2.33;;;12.30;82.80;;;;;;5048499;28;20488;-65
2021/05/23 07:06:10;;;;;;;5.95;2.90;;;12.30;82.60;;;;;;5049184;28;20037;-66
2021/05/23 07:08:35;;;;;;;5.45;2.33;;;12.40;82.00;;;;;;5048841;28;20409;-66
2021/05/23 07:11:01;;;;;;;5.57;2.70;;;12.50;80.00;;;;;;5049614;28;20497;-65
2021/05/23 07:13:27;;;;;;;8.40;3.55;;;12.70;80.60;;;;;;5043736;28;20422;-66
2021/05/23 07:15:53;;;;;;;10.45;3.30;;;12.80;79.50;;;;;;5042295;28;20033;-66
2021/05/23 07:18:19;;;;;;;6.68;3.30;;;13.00;80.10;;;;;;5046196;28;20048;-66
2021/05/23 07:20:46;;;;;;;6.65;3.15;;;13.60;78.60;;;;;;5049013;28;20059;-66
2021/05/23 07:23:12;;;;;;;7.47;3.20;;;14.20;77.00;;;;;;5048877;28;20036;-66
2021/05/23 07:25:39;;;;;;;6.78;3.40;;;14.50;75.40;;;;;;5048805;28;20040;-70
2021/05/23 07:28:05;;;;;;;8.73;3.85;;;14.80;73.40;;;;;;5048613;28;20073;-70
2021/05/23 07:30:33;;;;;;;9.95;3.42;;;14.80;72.60;;;;;;5047403;28;20088;-70
2021/05/23 07:32:59;;;;;;;9.40;3.28;;;14.50;73.60;;;;;;5047936;28;20033;-70
2021/05/23 07:35:25;;;;;;;10.55;6.05;;;14.40;74.60;;;;;;5047628;28;20132;-70
2021/05/23 07:37:51;;;;;;;8.27;5.53;;;14.10;73.00;;;;;;5043119;28;20148;-70
2021/05/23 07:40:17;;;;;;;6.93;4.00;;;13.90;75.60;;;;;;5046492;28;20128;-70
2021/05/23 07:42:43;;;;;;;7.38;3.72;;;13.90;75.50;;;;;;5046117;28;20076;-70
2021/05/23 07:45:10;;;;;;;8.65;3.53;;;13.80;75.30;;;;;;5047999;28;20102;-70
2021/05/23 07:47:35;;;;;;;13.23;4.18;;;13.90;75.60;;;;;;5045264;28;20451;-68
2021/05/23 07:50:03;;;;;;;6.97;4.47;;;13.90;76.00;;;;;;5034779;28;20874;-69
2021/05/23 07:52:29;;;;;;;9.13;4.00;;;13.90;77.10;;;;;;5044997;28;20079;-70
2021/05/23 07:54:55;;;;;;;6.60;3.67;;;14.00;77.30;;;;;;5049425;28;20064;-70
2021/05/23 07:57:20;;;;;;;8.68;4.10;;;14.10;75.30;;;;;;5048738;28;20048;-70
2021/05/23 07:59:46;;;;;;;11.57;4.18;;;14.10;75.60;;;;;;5041984;28;20033;-70
2021/05/23 08:02:12;;;;;;;11.90;4.47;;;14.10;75.00;;;;;;5036617;28;20044;-70
2021/05/23 08:04:37;;;;;;;7.90;3.80;;;14.00;74.70;;;;;;5052039;28;20041;-70
2021/05/23 08:07:03;;;;;;;11.02;5.40;;;14.00;74.10;;;;;;5053059;28;20032;-70
2021/05/23 08:09:29;;;;;;;7.85;4.50;;;14.00;74.50;;;;;;5044078;28;20084;-70
2021/05/23 08:11:54;;;;;;;10.65;4.70;;;14.00;74.80;;;;;;5068718;28;20128;-70
2021/05/23 08:14:20;;;;;;;11.77;5.55;;;14.10;75.20;;;;;;5049315;28;20040;-70
2021/05/23 08:16:47;;;;;;;7.80;5.20;;;14.10;75.40;;;;;;5052324;28;20478;-70
2021/05/23 08:19:13;;;;;;;9.90;5.00;;;14.10;73.50;;;;;;5049609;28;20067;-71
2021/05/23 08:21:40;;;;;;;13.38;5.25;;;14.00;73.70;;;;;;5041671;28;20033;-69
2021/05/23 08:24:06;;;;;;;12.02;4.90;;;13.90;75.50;;;;;;5048030;28;20037;-69
2021/05/23 08:26:33;;;;;;;9.73;5.88;;;13.80;76.10;;;;;;5051000;28;20049;-70
2021/05/23 08:29:00;;;;;;;8.85;5.30;;;13.90;77.00;;;;;;5047361;28;20048;-69
2021/05/23 08:31:26;;;;;;;8.70;4.80;;;14.20;76.00;;;;;;5052859;28;20045;-69
2021/05/23 08:33:53;;;;;;;9.20;5.65;;;14.70;75.40;;;;;;5051925;28;20045;-69
2021/05/23 08:36:18;;;;;;;9.95;5.68;;;15.30;72.20;;;;;;5051784;28;20124;-70
2021/05/23 08:38:44;;;;;;;7.13;5.70;;;15.50;71.20;;;;;;5049969;28;20119;-69
2021/05/23 08:41:09;;;;;;;9.32;8.45;;;15.60;70.40;;;;;;5050686;28;20140;-69
2021/05/23 08:43:35;;;;;;;8.25;6.05;;;15.70;70.30;;;;;;5049238;28;20040;-64
2021/05/23 08:46:01;;;;;;;14.05;5.90;;;16.10;69.70;;;;;;5052079;28;20044;-64
2021/05/23 08:48:27;;;;;;;7.88;4.90;;;16.40;68.80;;;;;;5062584;28;20029;-64
2021/05/23 08:50:53;;;;;;;7.40;6.00;;;16.50;67.70;;;;;;5050800;28;20462;-64
2021/05/23 08:53:19;;;;;;;7.43;6.63;;;16.60;65.80;;;;;;5053501;28;20039;-64
2021/05/23 08:55:45;;;;;;;6.65;5.88;;;16.50;66.50;;;;;;5052794;28;20037;-64
2021/05/23 08:58:12;;;;;;;7.53;6.70;;;16.40;66.40;;;;;;5052879;28;20043;-64
2021/05/23 09:00:38;;;;;;;6.90;5.40;;;16.20;67.90;;;;;;5049517;28;20041;-64
2021/05/23 09:03:07;;;;;;;9.30;6.22;;;16.20;67.00;;;;;;5053198;28;20041;-64
2021/05/23 09:05:34;;;;;;;7.00;5.60;;;16.20;66.80;;;;;;5052568;28;20090;-64
2021/05/23 09:08:02;;;;;;;10.45;6.05;;;16.30;69.90;;;;;;5047883;28;20829;-64
2021/05/23 09:10:31;;;;;;;7.45;5.55;;;16.40;67.10;;;;;;5059482;28;20123;-64
2021/05/23 09:12:57;;;;;;;7.88;5.20;;;16.40;66.80;;;;;;5067129;28;20033;-64
2021/05/23 09:15:23;;;;;;;6.53;4.80;;;16.30;68.60;;;;;;5049657;28;20068;-64
2021/05/23 09:18:05;;;;;;;5.43;4.57;;;16.20;69.40;;;;;;5066082;28;20435;-64
2021/05/23 09:20:32;;;;;;;6.30;5.43;;;16.30;68.90;;;;;;5044136;28;20036;-64
2021/05/23 09:23:01;;;;;;;5.25;4.85;;;16.40;68.20;;;;;;5045081;28;20509;-64
2021/05/23 09:25:32;;;;;;;5.15;4.75;;;16.40;67.10;;;;;;5065820;28;20041;-64
2021/05/23 09:27:58;;;;;;;6.43;5.47;;;16.60;66.30;;;;;;5043927;28;20094;-64
2021/05/23 09:30:27;;;;;;;5.95;5.35;;;16.80;64.60;;;;;;5051331;28;20029;-64
2021/05/23 09:32:56;;;;;;;5.55;5.05;;;16.80;66.50;;;;;;5051275;28;20107;-65
2021/05/23 09:35:22;;;;;;;6.05;5.25;;;16.90;66.00;;;;;;5050355;28;20508;-65
2021/05/23 09:38:03;;;;;;;5.57;5.07;;;16.90;65.70;;;;;;5047827;28;20037;-64
2021/05/23 09:40:36;;;;;;;7.07;5.20;;;16.90;67.40;;;;;;5035845;28;20045;-64
2021/05/23 09:43:04;;;;;;;4.72;4.18;;;17.00;66.70;;;;;;5044869;28;20041;-65
2021/05/23 09:45:47;;;;;;;4.53;4.22;;;17.10;64.90;;;;;;5044227;28;20045;-65
2021/05/23 09:48:21;;;;;;;5.47;4.65;;;16.90;67.00;;;;;;5035566;28;20125;-66
2021/05/23 09:50:49;;;;;;;4.95;4.55;;;16.90;66.20;;;;;;5041238;28;20043;-64
2021/05/23 09:53:21;;;;;;;5.72;4.60;;;16.90;65.70;;;;;;5051375;28;20113;-63
2021/05/23 09:55:54;;;;;;;5.93;5.38;;;16.90;67.70;;;;;;5050498;28;20501;-64
2021/05/23 09:58:28;;;;;;;8.43;6.25;;;17.10;70.80;;;;;;5044350;28;20049;-64
2021/05/23 10:00:55;;;;;;;6.53;5.82;;;17.30;69.90;;;;;;5045248;28;20533;-64
2021/05/23 10:03:23;;;;;;;6.75;5.80;;;17.30;67.50;;;;;;5041684;28;20033;-64
2021/05/23 10:05:48;;;;;;;6.93;6.30;;;17.20;67.50;;;;;;5058931;28;20175;-65
2021/05/23 10:08:15;;;;;;;7.35;6.15;;;16.90;67.20;;;;;;5037435;28;20411;-66
2021/05/23 10:10:41;;;;;;;7.47;6.07;;;16.80;68.30;;;;;;5045915;28;20422;-67
2021/05/23 10:13:07;;;;;;;9.40;7.03;;;16.90;68.70;;;;;;5050085;28;20382;-67
2021/05/23 10:15:33;;;;;;;7.55;6.80;;;16.80;70.50;;;;;;5050357;28;20029;-67
2021/05/23 10:17:58;;;;;;;8.07;7.30;;;16.90;68.90;;;;;;5047619;28;20368;-67
2021/05/23 10:20:27;;;;;;;7.18;6.47;;;16.60;68.60;;;;;;5044991;28;20025;-67
2021/05/23 10:22:53;;;;;;;7.28;6.60;;;16.60;70.00;;;;;;5053203;28;20115;-67
2021/05/23 10:25:20;;;;;;;7.65;5.50;;;16.50;70.10;;;;;;5049472;28;20078;-67
2021/05/23 10:27:46;;;;;;;2.50;1.58;;;16.40;68.30;;;;;;5054165;28;20474;-67
2021/05/23 10:30:14;;;;;;;2.55;1.30;;;16.20;67.80;;;;;;5048615;28;20044;-69
2021/05/23 10:32:43;;;;;;;1.33;1.10;;;15.20;70.60;;;;;;5051238;28;20036;-69
2021/05/23 10:35:15;;;;;;;2.08;1.00;;;14.30;74.80;;;;;;5050498;28;20040;-70
2021/05/23 10:37:43;;;;;;;0.93;0.70;;;13.80;76.70;;;;;;5047075;28;20057;-69
2021/05/23 10:40:20;;;;;;;1.83;1.17;;;13.20;80.90;;;;;;5047802;28;20045;-69
2021/05/23 10:42:51;;;;;;;1.33;1.08;;;12.90;81.40;;;;;;5032158;28;20116;-71
2021/05/23 10:45:31;;;;;;;2.17;1.13;;;12.60;83.10;;;;;;5035639;28;20536;-69
2021/05/23 10:48:09;;;;;;;1.23;1.13;;;12.40;85.10;;;;;;5048774;28;20037;-70
2021/05/23 10:50:37;;;;;;;1.70;1.52;;;12.30;84.80;;;;;;5046671;28;20111;-70
2021/05/23 10:53:03;;;;;;;2.00;1.40;;;12.30;86.30;;;;;;5050324;28;20040;-70
2021/05/23 10:55:30;;;;;;;1.20;1.10;;;12.30;85.00;;;;;;5048237;28;20033;-70
2021/05/23 10:57:57;;;;;;;2.42;1.60;;;12.30;86.10;;;;;;5030084;28;20487;-70
2021/05/23 11:00:27;;;;;;;1.55;1.45;;;12.30;85.00;;;;;;5043777;28;20068;-70
2021/05/23 11:02:54;;;;;;;1.35;1.10;;;12.30;86.20;;;;;;5048915;28;20037;-70
2021/05/23 11:05:26;;;;;;;1.30;1.20;;;12.30;85.90;;;;;;5048635;28;20100;-70
2021/05/23 11:07:58;;;;;;;1.00;0.90;;;12.30;86.00;;;;;;5048774;28;20432;-69
2021/05/23 11:10:51;;;;;;;1.60;1.27;;;12.30;85.90;;;;;;5048991;28;20049;-70
2021/05/23 11:13:33;;;;;;;1.20;1.10;;;12.50;87.60;;;;;;5040470;28;20056;-70
2021/05/23 11:16:10;;;;;;;1.80;1.70;;;12.70;86.30;;;;;;5050495;28;20127;-70
2021/05/23 11:18:36;;;;;;;2.40;1.70;;;12.90;87.70;;;;;;5039249;28;20033;-70
2021/05/23 11:21:05;;;;;;;1.35;1.15;;;13.30;85.50;;;;;;5042028;28;20037;-69
2021/05/23 11:23:32;;;;;;;1.20;1.10;;;13.50;82.80;;;;;;5048491;28;20033;-69
2021/05/23 11:26:02;;;;;;;1.90;1.15;;;13.60;82.30;;;;;;5048647;28;20029;-69
2021/05/23 11:28:28;;;;;;;2.78;1.35;;;13.70;81.70;;;;;;5049207;28;20067;-70
2021/05/23 11:30:54;;;;;;;1.48;1.30;;;13.60;82.80;;;;;;5049098;28;20029;-70
2021/05/23 11:33:21;;;;;;;1.88;1.70;;;13.70;81.00;;;;;;5049519;28;20482;-70
2021/05/23 11:35:49;;;;;;;2.03;1.58;;;13.80;80.90;;;;;;5049246;28;20049;-70
2021/05/23 11:38:15;;;;;;;1.88;1.60;;;13.70;83.00;;;;;;5052665;28;20048;-70
2021/05/23 11:40:42;;;;;;;2.47;1.30;;;13.70;83.20;;;;;;5052713;28;20091;-70
2021/05/23 11:43:19;;;;;;;1.45;1.35;;;13.70;81.60;;;;;;5046985;28;20041;-70
2021/05/23 11:46:06;;;;;;;1.90;1.50;;;13.70;81.20;;;;;;5054350;28;20032;-70
2021/05/23 11:48:40;;;;;;;1.50;1.40;;;13.60;81.90;;;;;;5058874;28;20068;-70
2021/05/23 11:51:10;;;;;;;2.95;1.88;;;13.50;82.80;;;;;;5049781;28;20136;-70
2021/05/23 11:53:39;;;;;;;1.60;1.50;;;13.40;81.90;;;;;;5051103;28;20490;-71
2021/05/23 11:56:06;;;;;;;3.63;1.90;;;13.20;85.60;;;;;;5052999;28;20482;-69
2021/05/23 11:58:32;;;;;;;1.85;1.70;;;13.10;83.80;;;;;;5052837;28;20119;-69
2021/05/23 12:01:13;;;;;;;1.67;1.58;;;13.00;84.60;;;;;;5050669;28;20128;-66
2021/05/23 12:03:39;;;;;;;1.50;1.40;;;12.80;84.50;;;;;;5045560;28;20038;-66
2021/05/23 12:06:14;;;;;;;2.60;1.70;;;12.50;86.00;;;;;;5037344;28;20040;-66
2021/05/23 12:08:39;;;;;;;2.25;1.70;;;12.40;86.00;;;;;;5041969;28;20397;-67
2021/05/23 12:11:06;;;;;;;2.00;1.80;;;12.30;87.80;;;;;;5047994;28;20045;-67
2021/05/23 12:13:41;;;;;;;2.65;1.70;;;12.20;88.60;;;;;;5036291;28;20036;-66
2021/05/23 12:16:07;;;;;;;2.20;1.50;;;12.10;87.60;;;;;;5049916;28;20037;-66
2021/05/23 12:18:42;;;;;;;1.58;1.40;;;12.10;87.00;;;;;;5052916;28;20048;-66
2021/05/23 12:21:16;;;;;;;1.52;1.30;;;12.10;87.70;;;;;;5052679;28;20108;-66
2021/05/23 12:23:44;;;;;;;2.45;1.40;;;12.00;86.80;;;;;;5051043;28;20049;-66
2021/05/23 12:26:12;;;;;;;1.90;1.75;;;12.10;86.20;;;;;;5051534;28;20469;-66
2021/05/23 12:28:45;;;;;;;2.40;2.20;;;12.10;87.00;;;;;;5051373;28;20116;-67
2021/05/23 12:31:12;;;;;;;2.75;1.67;;;12.00;87.80;;;;;;5041511;28;20112;-67
2021/05/23 12:33:39;;;;;;;2.70;1.88;;;12.10;87.60;;;;;;5066945;28;20036;-66
2021/05/23 12:36:12;;;;;;;3.15;1.48;;;12.30;86.60;;;;;;5062119;28;20049;-66
2021/05/23 12:38:41;;;;;;;1.98;1.77;;;12.70;85.30;;;;;;5052604;28;20041;-67
2021/05/23 12:41:12;;;;;;;2.90;1.70;;;13.10;86.50;;;;;;5051689;28;20051;-67
2021/05/23 12:43:40;;;;;;;1.83;1.52;;;13.30;84.40;;;;;;5067413;28;20549;-66
2021/05/23 12:46:10;;;;;;;2.03;1.92;;;13.50;83.70;;;;;;5052575;28;20140;-66
2021/05/23 12:48:46;;;;;;;2.72;1.80;;;13.50;83.70;;;;;;5050648;28;20037;-66
2021/05/23 12:51:16;;;;;;;3.45;2.40;;;13.50;83.50;;;;;;5051758;28;20391;-66
2021/05/23 12:53:51;;;;;;;3.33;2.78;;;13.40;84.00;;;;;;5046979;28;20064;-66